Time;durP1;ratioP1;P1;durP2;ratioP2;P2;SDS_P1;SDS_P2;PMS_P1;PMS_P2;Temp;Humidity;BMP_temperature;BMP_pressure;BME280_temperature;BME280_humidity;BME280_pressure;Samples;Min_cycle;Max_cycle;Signal;HPM_P1;HPM_P2
2022/12/17 13:08:19;;;;;;;4.07;1.48;;;-4.30;99.90;;;;;;4975762;28;20449;-71
2022/12/17 13:10:48;;;;;;;4.50;2.10;;;-4.20;99.90;;;;;;4991347;28;20506;-70
2022/12/17 13:13:14;;;;;;;1.90;1.55;;;-4.20;99.90;;;;;;4965822;28;20597;-71
2022/12/17 13:15:50;;;;;;;7.17;3.17;;;-4.10;99.90;;;;;;4979160;28;20430;-71
2022/12/17 13:18:26;;;;;;;4.82;2.85;;;-3.90;99.90;;;;;;4978730;28;20442;-73
2022/12/17 13:21:15;;;;;;;2.67;1.95;;;-3.90;99.90;;;;;;4981910;28;20434;-71
2022/12/17 13:23:42;;;;;;;8.57;1.90;;;-4.00;99.90;;;;;;4976797;28;20432;-71
2022/12/17 13:26:29;;;;;;;10.65;2.80;;;-4.00;99.90;;;;;;4975691;28;20488;-72
2022/12/17 13:29:20;;;;;;;1.85;1.75;;;-4.00;99.90;;;;;;4976309;28;20446;-72
2022/12/17 13:32:05;;;;;;;4.43;2.40;;;-4.10;99.90;;;;;;4977633;28;20439;-73
2022/12/17 13:35:03;;;;;;;4.07;2.97;;;-4.40;99.90;;;;;;4980862;28;20441;-72
2022/12/17 13:37:36;;;;;;;3.55;2.78;;;-4.30;99.90;;;;;;5032140;28;20445;-73
2022/12/17 13:40:28;;;;;;;7.53;2.57;;;-4.30;99.90;;;;;;5025189;28;20433;-73
2022/12/17 13:42:55;;;;;;;1.40;1.30;;;-4.60;99.90;;;;;;5042036;28;20444;-72
2022/12/17 13:45:24;;;;;;;3.43;2.33;;;-4.60;99.90;;;;;;5031088;28;20820;-72
2022/12/17 13:47:56;;;;;;;7.63;2.22;;;-4.70;99.90;;;;;;5036129;28;20979;-73
2022/12/17 13:50:29;;;;;;;2.35;1.83;;;-4.60;99.90;;;;;;5044098;28;20919;-73
2022/12/17 13:53:11;;;;;;;7.40;2.17;;;-4.60;99.90;;;;;;5038031;28;20433;-72
2022/12/17 13:55:39;;;;;;;7.80;2.88;;;-4.70;99.90;;;;;;5037773;28;20429;-72
2022/12/17 13:58:29;;;;;;;2.80;1.52;;;-4.70;99.90;;;;;;5039289;28;20523;-72
2022/12/17 14:01:05;;;;;;;2.42;1.95;;;-4.90;99.90;;;;;;5038851;28;20433;-72
2022/12/17 14:03:32;;;;;;;3.75;1.85;;;-4.90;99.90;;;;;;5022015;28;20460;-71
2022/12/17 14:06:20;;;;;;;5.18;1.48;;;-4.90;99.90;;;;;;5041993;28;20468;-72
2022/12/17 14:08:49;;;;;;;4.47;1.80;;;-4.90;99.90;;;;;;5048103;28;20452;-72
2022/12/17 14:14:02;;;;;;;7.95;2.30;;;-5.10;99.90;;;;;;5042236;28;20429;-72
2022/12/17 14:16:29;;;;;;;5.10;3.28;;;-5.10;99.90;;;;;;5017181;28;20426;-71
2022/12/17 14:18:58;;;;;;;3.88;1.30;;;-5.10;99.90;;;;;;5039171;28;20629;-72
2022/12/17 14:21:27;;;;;;;4.25;2.53;;;-5.00;99.90;;;;;;5034278;28;20474;-71
2022/12/17 14:23:55;;;;;;;5.17;2.87;;;-5.00;99.90;;;;;;5048974;28;20468;-72
2022/12/17 14:26:22;;;;;;;2.28;1.35;;;-5.00;99.90;;;;;;5044703;28;20427;-71
2022/12/17 14:28:54;;;;;;;4.07;2.95;;;-4.90;99.90;;;;;;5054845;28;20427;-72
2022/12/17 14:31:24;;;;;;;1.70;1.60;;;-5.00;99.90;;;;;;5045096;28;20442;-72
2022/12/17 14:34:09;;;;;;;3.63;2.08;;;-5.00;99.90;;;;;;5039741;28;20987;-71
2022/12/17 14:36:41;;;;;;;8.05;2.10;;;-4.90;99.90;;;;;;5029772;28;20436;-71
2022/12/17 14:39:27;;;;;;;4.73;3.17;;;-4.90;99.90;;;;;;5040179;28;21001;-72
2022/12/17 14:42:25;;;;;;;5.38;2.50;;;-4.90;99.90;;;;;;5043872;28;20996;-72
2022/12/17 14:45:01;;;;;;;3.03;2.25;;;-5.00;99.90;;;;;;5040777;28;20523;-71
2022/12/17 14:47:31;;;;;;;2.30;1.50;;;-5.10;99.90;;;;;;5043028;28;20500;-71
2022/12/17 14:50:16;;;;;;;3.67;1.70;;;-5.10;99.90;;;;;;5035901;28;20440;-71
2022/12/17 14:52:53;;;;;;;2.78;2.53;;;-5.10;99.90;;;;;;5047909;28;20456;-72
2022/12/17 14:55:52;;;;;;;4.90;2.25;;;-5.20;99.90;;;;;;5030226;28;20430;-72
2022/12/17 14:58:23;;;;;;;3.78;1.52;;;-5.30;99.90;;;;;;5032883;28;20433;-70
2022/12/17 15:00:52;;;;;;;2.15;1.98;;;-5.30;99.90;;;;;;5034444;28;20425;-73
2022/12/17 15:03:28;;;;;;;2.58;2.25;;;-5.40;99.90;;;;;;5041667;28;20419;-73
2022/12/17 15:06:02;;;;;;;3.60;1.83;;;-5.60;99.90;;;;;;5039212;28;20421;-72
2022/12/17 15:08:45;;;;;;;1.58;1.50;;;-5.70;99.90;;;;;;5030171;28;20435;-72
2022/12/17 15:11:15;;;;;;;4.05;2.45;;;-5.70;99.90;;;;;;5027680;28;20437;-73
2022/12/17 15:13:42;;;;;;;1.77;1.67;;;-5.90;99.90;;;;;;5041081;28;20523;-71
2022/12/17 15:16:09;;;;;;;2.63;1.52;;;-6.00;99.90;;;;;;5042954;28;20425;-72
2022/12/17 15:18:36;;;;;;;3.70;2.30;;;-6.00;99.90;;;;;;5040370;28;20429;-72
2022/12/17 15:21:04;;;;;;;3.72;2.08;;;-6.00;99.90;;;;;;5048408;28;20436;-72
2022/12/17 15:23:32;;;;;;;5.30;3.33;;;-6.10;99.90;;;;;;5037890;28;20932;-72
2022/12/17 15:25:59;;;;;;;6.75;1.90;;;-6.10;99.90;;;;;;5037499;28;20442;-72
2022/12/17 15:28:26;;;;;;;5.40;1.33;;;-6.10;99.90;;;;;;5025312;28;20521;-72
2022/12/17 15:30:53;;;;;;;4.38;3.22;;;-6.10;99.90;;;;;;5041556;28;20521;-72
2022/12/17 15:33:20;;;;;;;3.47;2.25;;;-6.10;99.90;;;;;;5041787;28;20443;-73
2022/12/17 15:35:46;;;;;;;3.40;2.67;;;-6.10;99.90;;;;;;5037696;28;20443;-72
2022/12/17 15:38:13;;;;;;;5.10;2.30;;;-6.20;99.90;;;;;;5055038;28;20428;-72
2022/12/17 15:40:40;;;;;;;5.05;2.30;;;-6.20;99.90;;;;;;5022767;28;20435;-72
2022/12/17 15:43:12;;;;;;;4.68;2.30;;;-6.10;99.90;;;;;;5046076;28;20421;-72
2022/12/17 15:45:41;;;;;;;1.38;1.38;;;-6.10;99.90;;;;;;5048150;28;20522;-72
2022/12/17 15:48:11;;;;;;;4.93;2.28;;;-6.10;99.90;;;;;;5037457;28;20772;-72
2022/12/17 15:50:39;;;;;;;4.90;3.00;;;-6.10;99.90;;;;;;5045975;28;20456;-72
2022/12/17 15:53:06;;;;;;;3.38;1.63;;;-6.10;99.90;;;;;;5040179;28;21484;-71
2022/12/17 15:55:33;;;;;;;2.25;2.15;;;-6.10;99.90;;;;;;5044286;28;20429;-72
2022/12/17 15:58:00;;;;;;;2.58;2.13;;;-6.10;99.90;;;;;;5046891;28;20572;-73
2022/12/17 16:00:27;;;;;;;2.15;1.58;;;-6.10;99.90;;;;;;5027918;28;20948;-73
2022/12/17 16:02:54;;;;;;;3.38;1.88;;;-6.10;99.90;;;;;;5043860;28;20438;-73
2022/12/17 16:05:22;;;;;;;5.30;1.92;;;-6.00;99.90;;;;;;5021584;28;20430;-73
2022/12/17 16:07:50;;;;;;;2.90;1.63;;;-6.00;99.90;;;;;;5022723;28;20433;-75
2022/12/17 16:10:17;;;;;;;4.00;2.28;;;-6.00;99.90;;;;;;5039614;28;20445;-73
2022/12/17 16:12:44;;;;;;;2.83;1.42;;;-6.00;99.90;;;;;;5044751;28;20431;-74
2022/12/17 16:15:11;;;;;;;2.25;1.67;;;-6.10;99.90;;;;;;5023523;28;20450;-72
2022/12/17 16:17:38;;;;;;;3.78;2.25;;;-6.20;99.90;;;;;;5045205;28;20440;-72
2022/12/17 16:20:07;;;;;;;5.28;2.85;;;-6.20;99.90;;;;;;5022770;28;20441;-73
2022/12/17 16:22:34;;;;;;;7.95;2.20;;;-6.20;99.90;;;;;;5042607;28;21161;-72
2022/12/17 16:25:01;;;;;;;5.72;2.20;;;-6.30;99.90;;;;;;5034642;28;20439;-72
2022/12/17 16:27:27;;;;;;;5.38;2.42;;;-6.30;99.90;;;;;;5026320;28;20437;-74
2022/12/17 16:29:54;;;;;;;5.30;1.80;;;-6.30;99.90;;;;;;5043553;28;20497;-72
2022/12/17 16:32:21;;;;;;;4.28;2.53;;;-6.40;99.90;;;;;;5043139;28;20472;-72
2022/12/17 16:34:51;;;;;;;5.25;2.10;;;-6.30;99.90;;;;;;5043338;28;20520;-73
2022/12/17 16:37:18;;;;;;;2.63;1.55;;;-6.30;99.90;;;;;;5049322;28;20491;-72
2022/12/17 16:39:44;;;;;;;2.47;2.30;;;-6.40;99.90;;;;;;5021966;28;20441;-72
2022/12/17 16:42:11;;;;;;;8.07;2.17;;;-6.40;99.90;;;;;;5043910;28;20874;-72
2022/12/17 16:44:38;;;;;;;3.35;1.83;;;-6.30;99.90;;;;;;5053851;28;20477;-72
2022/12/17 16:47:05;;;;;;;7.45;2.95;;;-6.30;99.90;;;;;;5047685;28;20431;-72
2022/12/17 16:49:35;;;;;;;2.53;1.67;;;-6.30;99.90;;;;;;5046412;28;20439;-73
2022/12/17 16:52:02;;;;;;;11.45;3.38;;;-6.40;99.90;;;;;;5045717;28;20426;-73
2022/12/17 16:54:31;;;;;;;2.90;1.75;;;-6.30;99.90;;;;;;5041061;28;20433;-72
2022/12/17 16:57:01;;;;;;;2.08;1.63;;;-6.30;99.90;;;;;;5035142;28;21236;-72
2022/12/17 16:59:28;;;;;;;3.72;2.13;;;-6.30;99.90;;;;;;5042637;28;20496;-74
2022/12/17 17:01:56;;;;;;;8.30;2.53;;;-6.40;99.90;;;;;;5018193;28;20429;-74
2022/12/17 17:04:27;;;;;;;4.57;2.47;;;-6.40;99.90;;;;;;5042238;28;20829;-72
2022/12/17 17:06:57;;;;;;;5.47;2.35;;;-6.40;99.90;;;;;;5022651;28;20425;-73
2022/12/17 17:09:24;;;;;;;2.25;1.33;;;-6.40;99.90;;;;;;5045614;28;20481;-73
2022/12/17 17:11:54;;;;;;;3.10;2.03;;;-6.40;99.90;;;;;;5047322;28;20439;-72
2022/12/17 17:14:21;;;;;;;5.18;1.73;;;-6.40;99.90;;;;;;5050917;28;20865;-73
2022/12/17 17:16:48;;;;;;;3.93;1.37;;;-6.40;99.90;;;;;;5063015;28;20510;-73
2022/12/17 17:19:15;;;;;;;3.60;1.92;;;-6.40;99.90;;;;;;5039670;28;20440;-73
2022/12/17 17:21:49;;;;;;;4.80;1.92;;;-6.40;99.90;;;;;;5037541;28;20430;-73
2022/12/17 17:24:19;;;;;;;6.43;3.05;;;-6.40;99.90;;;;;;5042819;28;20437;-73
2022/12/17 17:26:49;;;;;;;3.25;2.10;;;-6.40;99.90;;;;;;5042748;28;20433;-73
2022/12/17 17:29:16;;;;;;;6.60;2.47;;;-6.40;99.90;;;;;;5050764;28;21096;-73
2022/12/17 17:31:43;;;;;;;3.40;1.60;;;-6.40;99.90;;;;;;5053182;28;20435;-74
2022/12/17 17:34:30;;;;;;;2.00;1.40;;;-6.50;99.90;;;;;;5044987;28;20422;-74
2022/12/17 17:36:57;;;;;;;5.60;2.70;;;-6.50;99.90;;;;;;5023149;28;20478;-73
2022/12/17 17:39:24;;;;;;;7.70;1.87;;;-6.50;99.90;;;;;;5041551;28;20435;-73
2022/12/17 17:41:50;;;;;;;4.93;2.72;;;-6.50;99.90;;;;;;5037836;28;20471;-73
2022/12/17 17:44:17;;;;;;;3.30;2.10;;;-6.40;99.90;;;;;;5044159;28;20436;-73
2022/12/17 17:46:44;;;;;;;3.77;2.30;;;-6.40;99.90;;;;;;5047451;28;20509;-73
2022/12/17 17:49:15;;;;;;;6.67;2.60;;;-6.30;99.90;;;;;;5043271;28;20435;-73
2022/12/17 17:51:43;;;;;;;5.10;2.15;;;-6.20;99.90;;;;;;5037747;28;20435;-73
2022/12/17 17:54:29;;;;;;;3.83;2.40;;;-6.20;99.90;;;;;;5046651;28;20449;-74
2022/12/17 17:56:56;;;;;;;3.42;2.30;;;-6.20;99.90;;;;;;5044049;28;20909;-74
2022/12/17 17:59:23;;;;;;;3.60;1.27;;;-6.30;99.90;;;;;;5049538;28;20931;-73
2022/12/17 18:01:59;;;;;;;6.95;2.45;;;-6.40;99.90;;;;;;5039654;28;20777;-73
2022/12/17 18:04:26;;;;;;;2.70;1.65;;;-6.40;99.90;;;;;;5049700;28;20855;-73
2022/12/17 18:06:53;;;;;;;3.50;1.65;;;-6.40;99.90;;;;;;5040687;28;20429;-73
2022/12/17 18:09:40;;;;;;;3.35;1.40;;;-6.40;99.90;;;;;;5044859;28;20916;-73
2022/12/17 18:14:52;;;;;;;2.40;1.85;;;-6.40;99.90;;;;;;5038334;28;20457;-73
2022/12/17 18:17:39;;;;;;;5.57;3.00;;;-6.40;99.90;;;;;;5031093;28;20421;-73
2022/12/17 18:20:10;;;;;;;7.15;2.17;;;-6.30;99.90;;;;;;5044188;28;20427;-73
2022/12/17 18:22:37;;;;;;;4.38;1.92;;;-6.30;99.90;;;;;;5043008;28;20532;-73
2022/12/17 18:25:04;;;;;;;3.97;2.13;;;-6.40;99.90;;;;;;5045340;28;21173;-73
2022/12/17 18:27:31;;;;;;;2.70;1.92;;;-6.40;99.90;;;;;;5027129;28;20421;-73
2022/12/17 18:29:57;;;;;;;4.75;2.15;;;-6.50;99.90;;;;;;5050687;28;20429;-73
2022/12/17 18:32:24;;;;;;;4.70;2.03;;;-6.50;99.90;;;;;;5032557;28;20487;-73
2022/12/17 18:34:54;;;;;;;5.57;2.67;;;-6.50;99.90;;;;;;5047690;28;20437;-73
2022/12/17 18:37:21;;;;;;;3.80;1.40;;;-6.50;99.90;;;;;;5050931;28;20473;-73
2022/12/17 18:39:51;;;;;;;5.75;2.03;;;-6.50;99.90;;;;;;5048896;28;21150;-73
2022/12/17 18:45:07;;;;;;;3.10;1.10;;;-6.60;99.90;;;;;;5038298;28;20524;-73
2022/12/17 18:47:33;;;;;;;2.70;2.20;;;-6.60;99.90;;;;;;5025796;28;20440;-73
2022/12/17 18:50:00;;;;;;;5.30;1.55;;;-6.60;99.90;;;;;;5045068;28;20439;-73
2022/12/17 18:52:27;;;;;;;5.72;2.13;;;-6.60;99.90;;;;;;5041963;28;20432;-73
2022/12/17 18:54:53;;;;;;;0.95;0.90;;;-6.50;99.90;;;;;;5044380;28;20437;-73
2022/12/17 18:57:20;;;;;;;3.58;2.50;;;-6.60;99.90;;;;;;5047711;28;20438;-73
2022/12/17 18:59:47;;;;;;;3.88;1.45;;;-6.50;99.90;;;;;;5043247;28;20433;-73
2022/12/17 19:02:14;;;;;;;1.03;0.93;;;-6.60;99.90;;;;;;5046844;28;20948;-72
2022/12/17 19:04:41;;;;;;;3.38;2.60;;;-6.60;99.90;;;;;;5044866;28;20444;-72
2022/12/17 19:07:08;;;;;;;2.88;2.22;;;-6.60;99.90;;;;;;5051867;28;20555;-74
2022/12/17 19:09:37;;;;;;;3.73;1.60;;;-6.60;99.90;;;;;;5048586;28;20523;-73
2022/12/17 19:12:06;;;;;;;4.78;1.00;;;-6.60;99.90;;;;;;5023811;28;20466;-73
2022/12/17 19:14:33;;;;;;;5.25;1.60;;;-6.70;99.90;;;;;;5044565;28;20437;-74
2022/12/17 19:17:00;;;;;;;3.78;1.48;;;-6.70;99.90;;;;;;5047891;28;20435;-73
2022/12/17 19:19:27;;;;;;;2.88;1.90;;;-6.80;99.90;;;;;;5045915;28;20433;-73
2022/12/17 19:21:54;;;;;;;3.93;2.43;;;-6.80;99.90;;;;;;5049642;28;20434;-72
2022/12/17 19:24:22;;;;;;;3.40;1.98;;;-6.70;99.90;;;;;;5049372;28;20444;-73
2022/12/17 19:26:49;;;;;;;5.07;1.60;;;-6.60;99.90;;;;;;5034288;28;20457;-72
2022/12/17 19:29:18;;;;;;;5.38;2.90;;;-6.60;99.90;;;;;;5026987;28;20500;-73
2022/12/17 19:31:45;;;;;;;3.55;1.45;;;-6.60;99.90;;;;;;5028741;28;20436;-73
2022/12/17 19:34:14;;;;;;;5.18;2.35;;;-6.60;99.90;;;;;;5046804;28;20434;-73
2022/12/17 19:36:42;;;;;;;3.03;1.60;;;-6.60;99.90;;;;;;5052268;28;20425;-73
2022/12/17 19:39:17;;;;;;;6.90;2.75;;;-6.70;99.90;;;;;;5030810;28;21870;-73
2022/12/17 19:41:44;;;;;;;2.22;1.40;;;-6.80;99.90;;;;;;5031452;28;20425;-72
2022/12/17 19:44:13;;;;;;;5.07;1.70;;;-6.80;99.90;;;;;;5043334;28;20943;-72
2022/12/17 19:46:41;;;;;;;1.90;1.67;;;-6.90;99.90;;;;;;5022991;28;20510;-74
2022/12/17 19:49:10;;;;;;;8.30;2.42;;;-6.90;99.90;;;;;;5033635;28;20436;-74
2022/12/17 19:51:41;;;;;;;5.18;1.80;;;-6.90;99.90;;;;;;5044961;28;20425;-74
2022/12/17 19:54:10;;;;;;;6.97;2.83;;;-6.90;99.90;;;;;;5042252;28;20577;-74
2022/12/17 19:56:37;;;;;;;3.85;2.17;;;-6.90;99.90;;;;;;5049020;28;20904;-74
2022/12/17 19:59:07;;;;;;;2.10;1.20;;;-6.90;99.90;;;;;;5042448;28;20431;-71
2022/12/17 20:01:44;;;;;;;3.13;1.80;;;-7.00;99.90;;;;;;5048182;28;20786;-72
2022/12/17 20:04:12;;;;;;;5.18;2.10;;;-6.90;99.90;;;;;;5043271;28;20417;-71
2022/12/17 20:06:39;;;;;;;4.75;2.03;;;-7.00;99.90;;;;;;5045653;28;20433;-72
2022/12/17 20:09:06;;;;;;;2.35;1.98;;;-7.00;99.90;;;;;;5049314;28;20921;-72
2022/12/17 20:11:36;;;;;;;3.80;2.08;;;-7.10;99.90;;;;;;5060246;28;20427;-72
2022/12/17 20:14:19;;;;;;;4.00;1.45;;;-7.10;99.90;;;;;;5047980;28;20990;-72
2022/12/17 20:16:49;;;;;;;3.30;1.83;;;-7.00;99.90;;;;;;5049448;28;20435;-73
2022/12/17 20:19:24;;;;;;;4.30;1.83;;;-7.10;99.90;;;;;;5040921;28;20477;-71
2022/12/17 20:21:52;;;;;;;2.22;1.63;;;-7.00;99.90;;;;;;5039830;28;20450;-72
2022/12/17 20:24:19;;;;;;;6.50;1.52;;;-7.00;99.90;;;;;;5042539;28;20417;-72
2022/12/17 20:26:53;;;;;;;1.67;1.40;;;-6.90;99.90;;;;;;5038766;28;20430;-72
2022/12/17 20:29:22;;;;;;;2.67;1.77;;;-6.80;99.90;;;;;;5027121;28;20421;-72
2022/12/17 20:31:49;;;;;;;4.30;2.13;;;-6.80;99.90;;;;;;5030377;28;20906;-72
2022/12/17 20:34:22;;;;;;;1.90;1.17;;;-6.90;99.90;;;;;;5040443;28;20490;-72
2022/12/17 20:36:50;;;;;;;2.22;1.75;;;-6.80;99.90;;;;;;5050364;28;20434;-72
2022/12/17 20:39:18;;;;;;;2.00;1.75;;;-6.80;99.90;;;;;;5042138;28;20429;-73
2022/12/17 20:41:52;;;;;;;1.35;1.25;;;-6.90;99.90;;;;;;5048898;28;20431;-71
2022/12/17 20:44:18;;;;;;;1.30;1.30;;;-6.90;99.90;;;;;;5040592;28;20428;-72
2022/12/17 20:46:45;;;;;;;2.80;2.10;;;-6.90;99.90;;;;;;5041314;28;20522;-72
2022/12/17 20:49:13;;;;;;;3.50;1.85;;;-7.00;99.90;;;;;;5042309;28;20952;-72
2022/12/17 20:51:40;;;;;;;4.45;1.63;;;-7.00;99.90;;;;;;5035644;28;20529;-72
2022/12/17 20:54:08;;;;;;;4.15;1.83;;;-7.00;99.90;;;;;;5046108;28;20421;-72
2022/12/17 20:56:36;;;;;;;2.03;1.48;;;-7.00;99.90;;;;;;5033099;28;20459;-73
2022/12/17 20:59:05;;;;;;;7.53;1.80;;;-7.10;99.90;;;;;;5046215;28;20899;-72
2022/12/17 21:01:35;;;;;;;3.15;2.08;;;-7.10;99.90;;;;;;5022907;28;20423;-72
2022/12/17 21:04:05;;;;;;;1.27;1.17;;;-7.10;99.90;;;;;;5044510;28;21108;-72
2022/12/17 21:06:38;;;;;;;2.75;1.88;;;-7.10;99.90;;;;;;5050394;28;20436;-73
2022/12/17 21:09:04;;;;;;;1.10;1.00;;;-7.10;99.90;;;;;;5026559;28;20431;-72
2022/12/17 21:11:35;;;;;;;5.07;1.83;;;-7.20;99.90;;;;;;5044697;28;20499;-72
2022/12/17 21:14:08;;;;;;;4.75;2.00;;;-7.30;99.90;;;;;;5024656;28;20438;-72
2022/12/17 21:16:37;;;;;;;1.80;1.23;;;-7.20;99.90;;;;;;5045993;28;20560;-71
2022/12/17 21:19:08;;;;;;;3.17;2.03;;;-7.20;99.90;;;;;;5026166;28;20522;-71
2022/12/17 21:21:37;;;;;;;2.78;0.98;;;-7.20;99.90;;;;;;5041621;28;20944;-71
2022/12/17 21:24:04;;;;;;;3.60;1.20;;;-7.30;99.90;;;;;;5049412;28;20428;-72
2022/12/17 21:26:39;;;;;;;5.88;1.67;;;-7.30;99.90;;;;;;5045022;28;20440;-72
2022/12/17 21:29:07;;;;;;;5.00;2.53;;;-7.40;99.90;;;;;;5043743;28;20427;-72
2022/12/17 21:31:39;;;;;;;1.38;1.27;;;-7.50;99.90;;;;;;5046462;28;20437;-71
2022/12/17 21:34:11;;;;;;;2.47;1.90;;;-7.50;99.90;;;;;;5026684;28;20464;-72
2022/12/17 21:36:38;;;;;;;2.88;1.55;;;-7.60;99.90;;;;;;5027339;28;20437;-72
2022/12/17 21:39:07;;;;;;;3.40;1.10;;;-7.60;99.90;;;;;;5053364;28;20444;-72
2022/12/17 21:41:37;;;;;;;4.60;1.73;;;-7.60;99.90;;;;;;5027163;28;20437;-72
2022/12/17 21:44:09;;;;;;;3.08;1.17;;;-7.70;99.90;;;;;;5042569;28;20436;-71
2022/12/17 21:46:36;;;;;;;2.70;1.73;;;-7.70;99.90;;;;;;5041008;28;20442;-73
2022/12/17 21:49:05;;;;;;;2.25;1.67;;;-7.70;99.90;;;;;;5044572;28;20907;-71
2022/12/17 21:51:32;;;;;;;3.22;2.30;;;-7.70;99.90;;;;;;5043477;28;20522;-73
2022/12/17 21:54:01;;;;;;;3.45;2.30;;;-7.80;99.90;;;;;;5043658;28;20451;-72
2022/12/17 21:56:34;;;;;;;4.10;1.67;;;-7.80;99.90;;;;;;5046012;28;20435;-71
2022/12/17 21:59:01;;;;;;;2.63;2.38;;;-7.70;99.90;;;;;;5042523;28;20435;-71
2022/12/17 22:01:30;;;;;;;3.55;1.58;;;-7.70;99.90;;;;;;5061176;28;20995;-72
2022/12/17 22:04:00;;;;;;;1.83;1.73;;;-7.60;99.90;;;;;;5031716;28;20431;-72
2022/12/17 22:06:29;;;;;;;2.10;1.98;;;-7.60;99.90;;;;;;5025764;28;20432;-72
2022/12/17 22:09:05;;;;;;;1.33;1.15;;;-7.60;99.90;;;;;;5056304;28;20905;-72
2022/12/17 22:14:01;;;;;;;18.55;2.92;;;-7.50;99.90;;;;;;5040655;28;20427;-72
2022/12/17 22:14:38;;;;;;;2.30;1.15;;;-7.60;99.90;;;;;;5044569;28;20520;-72
2022/12/17 22:17:05;;;;;;;6.10;1.75;;;-7.60;99.90;;;;;;5045404;28;20431;-72
2022/12/17 22:19:32;;;;;;;6.22;1.73;;;-7.50;99.90;;;;;;5051121;28;20433;-72
2022/12/17 22:22:01;;;;;;;2.08;1.70;;;-7.50;99.90;;;;;;5055545;28;20506;-75
2022/12/17 22:24:27;;;;;;;1.50;1.40;;;-7.50;99.90;;;;;;5049598;28;20433;-72
2022/12/17 22:27:02;;;;;;;1.52;1.42;;;-7.60;99.90;;;;;;5050162;28;20432;-72
2022/12/17 22:35:03;;;;;;;3.45;2.00;;;-7.70;99.90;;;;;;5046750;28;20439;-72
2022/12/17 22:37:51;;;;;;;2.20;1.40;;;-7.90;99.90;;;;;;5042071;28;20546;-71
2022/12/17 22:40:38;;;;;;;7.65;1.45;;;-8.00;99.90;;;;;;5040435;28;20461;-72
2022/12/17 22:43:31;;;;;;;1.05;1.02;;;-8.10;99.90;;;;;;5032071;28;20416;-72
2022/12/17 22:46:20;;;;;;;4.72;1.40;;;-8.10;99.90;;;;;;5057197;28;20950;-71
2022/12/17 22:48:47;;;;;;;2.50;1.40;;;-8.00;99.90;;;;;;5026330;28;20458;-71
2022/12/17 22:51:14;;;;;;;3.85;2.00;;;-8.00;99.90;;;;;;5039129;28;20433;-72
2022/12/17 22:54:00;;;;;;;2.73;2.00;;;-8.00;99.90;;;;;;5041434;28;20440;-71
2022/12/17 22:56:27;;;;;;;1.52;1.25;;;-7.90;99.90;;;;;;5032256;28;20455;-71
2022/12/17 22:59:16;;;;;;;2.40;1.73;;;-7.90;99.90;;;;;;5034837;28;20423;-73
2022/12/17 23:01:43;;;;;;;2.78;1.40;;;-7.90;99.90;;;;;;5040171;28;20445;-72
2022/12/17 23:04:14;;;;;;;1.33;1.27;;;-7.90;99.90;;;;;;5052018;28;20429;-72
2022/12/17 23:06:46;;;;;;;4.20;1.75;;;-7.90;99.90;;;;;;5039080;28;20482;-73
2022/12/17 23:09:18;;;;;;;3.10;1.80;;;-7.90;99.90;;;;;;5042836;28;20429;-71
2022/12/17 23:11:47;;;;;;;0.87;0.87;;;-8.00;99.90;;;;;;5044180;28;20477;-72
2022/12/17 23:14:15;;;;;;;1.63;1.52;;;-8.00;99.90;;;;;;5032917;28;20462;-71
2022/12/17 23:16:42;;;;;;;3.15;1.92;;;-8.00;99.90;;;;;;5031888;28;20429;-72
2022/12/17 23:19:09;;;;;;;5.80;1.37;;;-8.00;99.90;;;;;;5053815;28;20428;-72
2022/12/17 23:21:36;;;;;;;2.38;1.70;;;-8.10;99.90;;;;;;5038535;28;20433;-71
2022/12/17 23:24:04;;;;;;;2.53;1.70;;;-8.20;99.90;;;;;;5031082;28;20904;-71
2022/12/17 23:26:34;;;;;;;5.57;1.00;;;-8.30;99.90;;;;;;5041814;28;20437;-72
2022/12/17 23:29:04;;;;;;;2.35;1.35;;;-8.40;99.90;;;;;;5046417;28;20425;-71
2022/12/17 23:31:37;;;;;;;2.87;1.43;;;-8.50;99.90;;;;;;5036542;28;20443;-71
2022/12/17 23:34:05;;;;;;;3.90;1.23;;;-8.50;99.90;;;;;;5037497;28;20466;-72
2022/12/17 23:36:32;;;;;;;1.52;1.42;;;-8.50;99.90;;;;;;5021867;28;22847;-71
2022/12/17 23:38:59;;;;;;;2.83;1.23;;;-8.50;99.90;;;;;;5050439;28;20431;-72
2022/12/17 23:41:29;;;;;;;3.30;1.35;;;-8.50;99.90;;;;;;5046988;28;20440;-71
2022/12/17 23:43:56;;;;;;;2.42;1.38;;;-8.50;99.90;;;;;;5035946;28;20426;-71
2022/12/17 23:46:24;;;;;;;1.77;1.33;;;-8.60;99.90;;;;;;5048452;28;20501;-71
2022/12/17 23:48:52;;;;;;;2.20;1.83;;;-8.80;99.90;;;;;;5023908;28;21521;-71
2022/12/17 23:51:21;;;;;;;2.60;1.10;;;-9.00;99.90;;;;;;5039814;28;20536;-71
2022/12/17 23:53:51;;;;;;;1.45;1.23;;;-9.20;99.90;;;;;;5038143;28;20438;-71
2022/12/17 23:56:23;;;;;;;1.97;1.37;;;-9.20;99.90;;;;;;5044716;28;20987;-71
2022/12/17 23:58:56;;;;;;;1.30;1.20;;;-9.30;99.90;;;;;;5027873;28;20432;-70
